sensor_id;sensor_type;location;lat;lon;timestamp;temperature;humidity
7317;DHT22;3699;51.462;6.696;2023-05-20T00:02:10;14.20;94.30
7317;DHT22;3699;51.462;6.696;2023-05-20T00:04:37;14.10;93.70
7317;DHT22;3699;51.462;6.696;2023-05-20T00:07:05;14.10;96.30
7317;DHT22;3699;51.462;6.696;2023-05-20T00:09:31;14.00;95.80
7317;DHT22;3699;51.462;6.696;2023-05-20T00:11:59;14.00;95.30
7317;DHT22;3699;51.462;6.696;2023-05-20T00:14:27;14.00;95.50
7317;DHT22;3699;51.462;6.696;2023-05-20T00:16:53;14.10;94.10
7317;DHT22;3699;51.462;6.696;2023-05-20T00:19:20;14.00;93.70
7317;DHT22;3699;51.462;6.696;2023-05-20T00:21:47;14.00;92.20
7317;DHT22;3699;51.462;6.696;2023-05-20T00:24:14;14.00;92.50
7317;DHT22;3699;51.462;6.696;2023-05-20T00:26:40;14.00;92.70
7317;DHT22;3699;51.462;6.696;2023-05-20T00:29:08;14.00;93.70
7317;DHT22;3699;51.462;6.696;2023-05-20T00:31:35;14.00;93.70
7317;DHT22;3699;51.462;6.696;2023-05-20T00:34:02;13.90;93.50
7317;DHT22;3699;51.462;6.696;2023-05-20T00:36:28;13.90;94.30
7317;DHT22;3699;51.462;6.696;2023-05-20T00:38:55;13.90;95.70
7317;DHT22;3699;51.462;6.696;2023-05-20T00:41:22;13.80;96.30
7317;DHT22;3699;51.462;6.696;2023-05-20T00:43:52;13.80;97.10
7317;DHT22;3699;51.462;6.696;2023-05-20T00:46:20;13.80;97.20
7317;DHT22;3699;51.462;6.696;2023-05-20T00:48:47;12.70;97.40
7317;DHT22;3699;51.462;6.696;2023-05-20T00:51:14;13.80;99.30
7317;DHT22;3699;51.462;6.696;2023-05-20T00:53:41;13.80;99.90
7317;DHT22;3699;51.462;6.696;2023-05-20T00:56:09;13.70;99.90
7317;DHT22;3699;51.462;6.696;2023-05-20T00:58:36;13.70;99.90
7317;DHT22;3699;51.462;6.696;2023-05-20T01:01:03;13.70;99.90
7317;DHT22;3699;51.462;6.696;2023-05-20T01:03:32;13.60;99.90
7317;DHT22;3699;51.462;6.696;2023-05-20T01:05:59;13.60;99.90
7317;DHT22;3699;51.462;6.696;2023-05-20T01:08:26;13.50;99.90
7317;DHT22;3699;51.462;6.696;2023-05-20T01:10:57;13.50;99.90
7317;DHT22;3699;51.462;6.696;2023-05-20T01:13:31;13.50;99.90
7317;DHT22;3699;51.462;6.696;2023-05-20T01:16:00;13.40;99.90
7317;DHT22;3699;51.462;6.696;2023-05-20T01:18:31;13.40;99.90
7317;DHT22;3699;51.462;6.696;2023-05-20T01:21:01;13.40;99.90
7317;DHT22;3699;51.462;6.696;2023-05-20T01:23:37;13.10;99.90
7317;DHT22;3699;51.462;6.696;2023-05-20T01:26:04;13.30;99.90
7317;DHT22;3699;51.462;6.696;2023-05-20T01:28:31;13.30;99.90
7317;DHT22;3699;51.462;6.696;2023-05-20T01:31:00;13.30;99.90
7317;DHT22;3699;51.462;6.696;2023-05-20T01:33:28;13.20;99.90
7317;DHT22;3699;51.462;6.696;2023-05-20T01:35:56;13.20;99.90
7317;DHT22;3699;51.462;6.696;2023-05-20T01:38:24;13.30;99.90
7317;DHT22;3699;51.462;6.696;2023-05-20T01:40:53;13.20;99.90
7317;DHT22;3699;51.462;6.696;2023-05-20T01:43:20;13.30;99.90
7317;DHT22;3699;51.462;6.696;2023-05-20T01:45:47;13.30;99.90
7317;DHT22;3699;51.462;6.696;2023-05-20T01:48:14;13.30;99.90
7317;DHT22;3699;51.462;6.696;2023-05-20T01:50:41;13.40;99.90
7317;DHT22;3699;51.462;6.696;2023-05-20T01:53:08;13.40;99.90
7317;DHT22;3699;51.462;6.696;2023-05-20T01:55:35;13.40;99.90
7317;DHT22;3699;51.462;6.696;2023-05-20T01:58:03;13.40;99.90
7317;DHT22;3699;51.462;6.696;2023-05-20T02:00:31;13.40;99.90
7317;DHT22;3699;51.462;6.696;2023-05-20T02:02:58;13.40;99.90
7317;DHT22;3699;51.462;6.696;2023-05-20T02:05:25;13.40;99.90
7317;DHT22;3699;51.462;6.696;2023-05-20T02:07:51;13.40;99.90
7317;DHT22;3699;51.462;6.696;2023-05-20T02:10:18;13.30;99.90
7317;DHT22;3699;51.462;6.696;2023-05-20T02:12:45;13.30;99.90
7317;DHT22;3699;51.462;6.696;2023-05-20T02:15:15;13.30;99.90
7317;DHT22;3699;51.462;6.696;2023-05-20T02:17:41;13.30;99.90
7317;DHT22;3699;51.462;6.696;2023-05-20T02:20:09;13.30;99.90
7317;DHT22;3699;51.462;6.696;2023-05-20T02:22:36;13.20;99.90
7317;DHT22;3699;51.462;6.696;2023-05-20T02:25:03;13.20;99.90
7317;DHT22;3699;51.462;6.696;2023-05-20T02:27:30;13.20;99.90
7317;DHT22;3699;51.462;6.696;2023-05-20T02:29:57;13.20;99.90
7317;DHT22;3699;51.462;6.696;2023-05-20T02:32:25;13.30;99.90
7317;DHT22;3699;51.462;6.696;2023-05-20T02:34:53;13.30;99.90
7317;DHT22;3699;51.462;6.696;2023-05-20T02:37:20;13.30;99.90
7317;DHT22;3699;51.462;6.696;2023-05-20T02:39:47;13.30;99.90
7317;DHT22;3699;51.462;6.696;2023-05-20T02:42:13;13.30;99.90
7317;DHT22;3699;51.462;6.696;2023-05-20T02:44:40;13.30;99.90
7317;DHT22;3699;51.462;6.696;2023-05-20T02:47:07;13.30;99.90
7317;DHT22;3699;51.462;6.696;2023-05-20T02:49:35;13.30;99.90
7317;DHT22;3699;51.462;6.696;2023-05-20T02:52:02;13.30;99.90
7317;DHT22;3699;51.462;6.696;2023-05-20T02:54:28;13.30;99.90
7317;DHT22;3699;51.462;6.696;2023-05-20T02:56:55;13.30;99.90
7317;DHT22;3699;51.462;6.696;2023-05-20T02:59:22;13.30;99.90
7317;DHT22;3699;51.462;6.696;2023-05-20T03:01:48;13.30;99.90
7317;DHT22;3699;51.462;6.696;2023-05-20T03:04:15;13.30;99.90
7317;DHT22;3699;51.462;6.696;2023-05-20T03:06:45;13.20;99.90
7317;DHT22;3699;51.462;6.696;2023-05-20T03:09:12;13.20;99.90
7317;DHT22;3699;51.462;6.696;2023-05-20T03:11:38;13.20;99.90
7317;DHT22;3699;51.462;6.696;2023-05-20T03:14:05;13.20;99.90
7317;DHT22;3699;51.462;6.696;2023-05-20T03:16:32;13.10;99.90
7317;DHT22;3699;51.462;6.696;2023-05-20T03:18:59;13.30;99.90
7317;DHT22;3699;51.462;6.696;2023-05-20T03:21:26;13.00;99.90
7317;DHT22;3699;51.462;6.696;2023-05-20T03:23:54;13.10;99.90
7317;DHT22;3699;51.462;6.696;2023-05-20T03:26:21;12.90;99.90
7317;DHT22;3699;51.462;6.696;2023-05-20T03:28:50;13.30;99.90
7317;DHT22;3699;51.462;6.696;2023-05-20T03:31:16;13.00;99.90
7317;DHT22;3699;51.462;6.696;2023-05-20T03:33:43;12.90;99.90
7317;DHT22;3699;51.462;6.696;2023-05-20T03:38:38;13.00;99.90
7317;DHT22;3699;51.462;6.696;2023-05-20T03:41:06;13.00;99.90
7317;DHT22;3699;51.462;6.696;2023-05-20T03:45:59;12.60;99.90
7317;DHT22;3699;51.462;6.696;2023-05-20T03:48:26;13.10;99.90
7317;DHT22;3699;51.462;6.696;2023-05-20T03:50:53;13.10;99.90
7317;DHT22;3699;51.462;6.696;2023-05-20T03:53:20;12.70;99.90
7317;DHT22;3699;51.462;6.696;2023-05-20T03:55:46;13.10;99.90
7317;DHT22;3699;51.462;6.696;2023-05-20T03:58:14;13.30;99.90
7317;DHT22;3699;51.462;6.696;2023-05-20T04:00:41;13.10;99.90
7317;DHT22;3699;51.462;6.696;2023-05-20T04:03:08;13.20;99.90
7317;DHT22;3699;51.462;6.696;2023-05-20T04:05:35;13.20;99.90
7317;DHT22;3699;51.462;6.696;2023-05-20T04:08:02;13.20;99.90
7317;DHT22;3699;51.462;6.696;2023-05-20T04:10:29;13.00;99.90
7317;DHT22;3699;51.462;6.696;2023-05-20T04:12:56;13.00;99.90
7317;DHT22;3699;51.462;6.696;2023-05-20T04:15:25;12.70;99.90
7317;DHT22;3699;51.462;6.696;2023-05-20T04:17:54;13.20;99.90
7317;DHT22;3699;51.462;6.696;2023-05-20T04:20:21;13.10;99.90
7317;DHT22;3699;51.462;6.696;2023-05-20T04:22:48;13.20;99.90
7317;DHT22;3699;51.462;6.696;2023-05-20T04:25:15;12.80;99.90
7317;DHT22;3699;51.462;6.696;2023-05-20T04:27:42;12.90;99.90
7317;DHT22;3699;51.462;6.696;2023-05-20T04:30:10;13.50;99.90
7317;DHT22;3699;51.462;6.696;2023-05-20T04:32:38;13.50;99.90
7317;DHT22;3699;51.462;6.696;2023-05-20T04:40:04;13.60;99.90
7317;DHT22;3699;51.462;6.696;2023-05-20T04:42:31;13.90;99.90
7317;DHT22;3699;51.462;6.696;2023-05-20T04:44:58;13.90;99.90
7317;DHT22;3699;51.462;6.696;2023-05-20T04:47:26;13.70;99.90
7317;DHT22;3699;51.462;6.696;2023-05-20T04:49:55;14.00;99.90
7317;DHT22;3699;51.462;6.696;2023-05-20T04:52:22;13.90;99.90
7317;DHT22;3699;51.462;6.696;2023-05-20T04:54:50;14.10;99.90
7317;DHT22;3699;51.462;6.696;2023-05-20T04:57:17;14.70;99.90
7317;DHT22;3699;51.462;6.696;2023-05-20T04:59:45;15.00;99.90
7317;DHT22;3699;51.462;6.696;2023-05-20T05:02:12;14.60;99.90
7317;DHT22;3699;51.462;6.696;2023-05-20T05:04:39;14.80;99.90
7317;DHT22;3699;51.462;6.696;2023-05-20T05:07:07;14.80;99.90
7317;DHT22;3699;51.462;6.696;2023-05-20T05:09:33;14.90;99.90
7317;DHT22;3699;51.462;6.696;2023-05-20T05:12:00;15.10;99.90
7317;DHT22;3699;51.462;6.696;2023-05-20T05:14:27;15.50;99.90
7317;DHT22;3699;51.462;6.696;2023-05-20T05:16:54;15.80;99.90
7317;DHT22;3699;51.462;6.696;2023-05-20T05:19:20;17.00;99.90
7317;DHT22;3699;51.462;6.696;2023-05-20T05:21:47;16.40;99.90
7317;DHT22;3699;51.462;6.696;2023-05-20T05:24:15;16.80;99.90
7317;DHT22;3699;51.462;6.696;2023-05-20T05:26:42;17.00;96.40
7317;DHT22;3699;51.462;6.696;2023-05-20T05:29:09;17.30;93.90
7317;DHT22;3699;51.462;6.696;2023-05-20T05:31:35;17.50;92.20
7317;DHT22;3699;51.462;6.696;2023-05-20T05:34:02;17.30;90.50
7317;DHT22;3699;51.462;6.696;2023-05-20T05:36:32;17.50;87.70
7317;DHT22;3699;51.462;6.696;2023-05-20T05:38:59;17.70;86.30
7317;DHT22;3699;51.462;6.696;2023-05-20T05:41:27;16.80;82.10
7317;DHT22;3699;51.462;6.696;2023-05-20T05:43:53;17.90;82.20
7317;DHT22;3699;51.462;6.696;2023-05-20T05:46:20;18.20;77.90
7317;DHT22;3699;51.462;6.696;2023-05-20T05:48:47;18.40;74.40
7317;DHT22;3699;51.462;6.696;2023-05-20T05:51:15;18.60;69.40
7317;DHT22;3699;51.462;6.696;2023-05-20T05:53:42;18.80;69.10
7317;DHT22;3699;51.462;6.696;2023-05-20T05:56:09;19.00;66.50
7317;DHT22;3699;51.462;6.696;2023-05-20T05:58:37;19.10;63.00
7317;DHT22;3699;51.462;6.696;2023-05-20T06:01:04;19.10;60.20
7317;DHT22;3699;51.462;6.696;2023-05-20T06:03:31;19.20;59.80
7317;DHT22;3699;51.462;6.696;2023-05-20T06:05:58;19.30;58.70
7317;DHT22;3699;51.462;6.696;2023-05-20T06:08:24;19.30;57.90
7317;DHT22;3699;51.462;6.696;2023-05-20T06:10:51;19.40;58.10
7317;DHT22;3699;51.462;6.696;2023-05-20T06:13:19;19.50;58.70
7317;DHT22;3699;51.462;6.696;2023-05-20T06:15:48;19.60;58.50
7317;DHT22;3699;51.462;6.696;2023-05-20T06:18:15;19.90;55.20
7317;DHT22;3699;51.462;6.696;2023-05-20T06:20:42;20.00;54.50
7317;DHT22;3699;51.462;6.696;2023-05-20T06:23:08;20.10;54.20
7317;DHT22;3699;51.462;6.696;2023-05-20T06:25:35;20.50;53.20
7317;DHT22;3699;51.462;6.696;2023-05-20T06:28:02;20.70;50.70
7317;DHT22;3699;51.462;6.696;2023-05-20T06:30:29;20.80;50.00
7317;DHT22;3699;51.462;6.696;2023-05-20T06:32:57;20.70;47.70
7317;DHT22;3699;51.462;6.696;2023-05-20T06:35:24;20.90;47.70
7317;DHT22;3699;51.462;6.696;2023-05-20T06:37:50;20.90;46.70
7317;DHT22;3699;51.462;6.696;2023-05-20T06:40:18;20.80;46.00
7317;DHT22;3699;51.462;6.696;2023-05-20T06:42:44;20.70;45.70
7317;DHT22;3699;51.462;6.696;2023-05-20T06:45:11;20.70;46.30
7317;DHT22;3699;51.462;6.696;2023-05-20T06:47:38;20.60;45.80
7317;DHT22;3699;51.462;6.696;2023-05-20T06:52:37;20.70;47.00
7317;DHT22;3699;51.462;6.696;2023-05-20T06:55:04;20.60;47.20
7317;DHT22;3699;51.462;6.696;2023-05-20T06:57:31;20.60;46.70
7317;DHT22;3699;51.462;6.696;2023-05-20T06:59:58;20.40;46.40
7317;DHT22;3699;51.462;6.696;2023-05-20T07:02:25;20.40;46.50
7317;DHT22;3699;51.462;6.696;2023-05-20T07:04:51;20.40;46.70
7317;DHT22;3699;51.462;6.696;2023-05-20T07:07:19;20.50;47.40
7317;DHT22;3699;51.462;6.696;2023-05-20T07:09:46;20.50;46.40
7317;DHT22;3699;51.462;6.696;2023-05-20T07:12:13;20.20;47.30
7317;DHT22;3699;51.462;6.696;2023-05-20T07:14:41;20.20;46.90
7317;DHT22;3699;51.462;6.696;2023-05-20T07:17:07;20.30;48.40
7317;DHT22;3699;51.462;6.696;2023-05-20T07:19:34;20.40;47.00
7317;DHT22;3699;51.462;6.696;2023-05-20T07:22:01;20.40;45.50
7317;DHT22;3699;51.462;6.696;2023-05-20T07:24:29;20.40;46.30
7317;DHT22;3699;51.462;6.696;2023-05-20T07:26:56;20.20;47.00
7317;DHT22;3699;51.462;6.696;2023-05-20T07:29:22;19.90;47.00
7317;DHT22;3699;51.462;6.696;2023-05-20T07:31:49;19.30;47.70
7317;DHT22;3699;51.462;6.696;2023-05-20T07:34:16;19.00;49.80
7317;DHT22;3699;51.462;6.696;2023-05-20T07:36:43;18.50;52.50
7317;DHT22;3699;51.462;6.696;2023-05-20T07:39:10;18.40;55.10
7317;DHT22;3699;51.462;6.696;2023-05-20T07:41:38;18.40;57.00
7317;DHT22;3699;51.462;6.696;2023-05-20T07:44:05;18.20;56.10
7317;DHT22;3699;51.462;6.696;2023-05-20T07:46:33;18.00;59.10
7317;DHT22;3699;51.462;6.696;2023-05-20T07:49:00;18.00;63.10
7317;DHT22;3699;51.462;6.696;2023-05-20T07:51:27;18.00;62.10
7317;DHT22;3699;51.462;6.696;2023-05-20T07:53:54;18.00;62.90
7317;DHT22;3699;51.462;6.696;2023-05-20T07:56:20;18.00;65.20
7317;DHT22;3699;51.462;6.696;2023-05-20T07:58:53;17.80;66.40
7317;DHT22;3699;51.462;6.696;2023-05-20T08:01:20;17.80;69.50
7317;DHT22;3699;51.462;6.696;2023-05-20T08:03:47;17.90;74.50
7317;DHT22;3699;51.462;6.696;2023-05-20T08:06:13;18.00;76.50
7317;DHT22;3699;51.462;6.696;2023-05-20T08:08:40;18.20;75.90
7317;DHT22;3699;51.462;6.696;2023-05-20T08:11:07;18.20;72.00
7317;DHT22;3699;51.462;6.696;2023-05-20T08:13:34;18.20;69.40
7317;DHT22;3699;51.462;6.696;2023-05-20T08:16:03;18.20;73.60
7317;DHT22;3699;51.462;6.696;2023-05-20T08:18:30;18.20;73.30
7317;DHT22;3699;51.462;6.696;2023-05-20T08:20:58;18.20;77.80
7317;DHT22;3699;51.462;6.696;2023-05-20T08:23:25;18.20;79.50
7317;DHT22;3699;51.462;6.696;2023-05-20T08:25:52;18.20;75.50
7317;DHT22;3699;51.462;6.696;2023-05-20T08:28:18;18.10;79.60
7317;DHT22;3699;51.462;6.696;2023-05-20T08:30:46;18.00;78.90
7317;DHT22;3699;51.462;6.696;2023-05-20T08:33:14;17.90;83.40
7317;DHT22;3699;51.462;6.696;2023-05-20T08:35:43;17.80;83.90
7317;DHT22;3699;51.462;6.696;2023-05-20T08:38:10;17.80;88.10
7317;DHT22;3699;51.462;6.696;2023-05-20T08:40:37;17.80;91.80
7317;DHT22;3699;51.462;6.696;2023-05-20T08:43:04;18.00;91.60
7317;DHT22;3699;51.462;6.696;2023-05-20T08:45:32;18.20;91.70
7317;DHT22;3699;51.462;6.696;2023-05-20T08:48:00;18.10;87.60
7317;DHT22;3699;51.462;6.696;2023-05-20T08:50:28;18.20;88.90
7317;DHT22;3699;51.462;6.696;2023-05-20T08:52:54;18.30;90.50
7317;DHT22;3699;51.462;6.696;2023-05-20T08:55:24;18.30;82.90
7317;DHT22;3699;51.462;6.696;2023-05-20T08:57:54;18.50;88.20
7317;DHT22;3699;51.462;6.696;2023-05-20T09:00:22;18.70;89.30
7317;DHT22;3699;51.462;6.696;2023-05-20T09:02:51;18.80;87.40
7317;DHT22;3699;51.462;6.696;2023-05-20T09:05:19;18.90;82.20
7317;DHT22;3699;51.462;6.696;2023-05-20T09:07:48;18.90;83.60
7317;DHT22;3699;51.462;6.696;2023-05-20T09:10:14;19.00;74.40
7317;DHT22;3699;51.462;6.696;2023-05-20T09:12:41;19.10;79.00
7317;DHT22;3699;51.462;6.696;2023-05-20T09:15:08;19.20;78.30
7317;DHT22;3699;51.462;6.696;2023-05-20T09:17:36;19.40;75.80
7317;DHT22;3699;51.462;6.696;2023-05-20T09:20:05;19.30;71.90
7317;DHT22;3699;51.462;6.696;2023-05-20T09:22:34;19.20;70.60
7317;DHT22;3699;51.462;6.696;2023-05-20T09:25:02;19.20;70.80
7317;DHT22;3699;51.462;6.696;2023-05-20T09:27:29;19.10;74.00
7317;DHT22;3699;51.462;6.696;2023-05-20T09:29:56;19.00;75.50
7317;DHT22;3699;51.462;6.696;2023-05-20T09:32:23;19.10;74.80
7317;DHT22;3699;51.462;6.696;2023-05-20T09:34:52;19.00;73.50
7317;DHT22;3699;51.462;6.696;2023-05-20T09:37:20;18.90;73.00
7317;DHT22;3699;51.462;6.696;2023-05-20T09:39:54;18.90;80.10
7317;DHT22;3699;51.462;6.696;2023-05-20T09:42:25;18.90;75.30
7317;DHT22;3699;51.462;6.696;2023-05-20T09:44:53;19.00;76.50
7317;DHT22;3699;51.462;6.696;2023-05-20T09:47:20;19.00;78.40
7317;DHT22;3699;51.462;6.696;2023-05-20T09:49:49;19.00;78.40
7317;DHT22;3699;51.462;6.696;2023-05-20T09:52:17;19.20;78.00
7317;DHT22;3699;51.462;6.696;2023-05-20T09:54:44;19.00;78.80
7317;DHT22;3699;51.462;6.696;2023-05-20T09:57:12;19.10;78.80
7317;DHT22;3699;51.462;6.696;2023-05-20T09:59:40;19.20;76.40
7317;DHT22;3699;51.462;6.696;2023-05-20T10:02:07;19.10;75.50
7317;DHT22;3699;51.462;6.696;2023-05-20T10:04:37;19.30;78.70
7317;DHT22;3699;51.462;6.696;2023-05-20T10:10:13;19.50;78.00
7317;DHT22;3699;51.462;6.696;2023-05-20T10:12:50;19.70;78.10
7317;DHT22;3699;51.462;6.696;2023-05-20T10:15:25;19.80;70.50
7317;DHT22;3699;51.462;6.696;2023-05-20T10:18:00;19.80;68.90
7317;DHT22;3699;51.462;6.696;2023-05-20T10:20:30;19.50;68.60
7317;DHT22;3699;51.462;6.696;2023-05-20T10:22:57;19.40;74.40
7317;DHT22;3699;51.462;6.696;2023-05-20T10:25:26;19.30;73.40
7317;DHT22;3699;51.462;6.696;2023-05-20T10:28:03;19.50;74.80
7317;DHT22;3699;51.462;6.696;2023-05-20T10:30:33;19.30;74.30
7317;DHT22;3699;51.462;6.696;2023-05-20T10:33:03;19.40;75.60
7317;DHT22;3699;51.462;6.696;2023-05-20T10:35:30;19.40;76.70
7317;DHT22;3699;51.462;6.696;2023-05-20T10:38:06;19.40;76.70
7317;DHT22;3699;51.462;6.696;2023-05-20T10:40:33;19.30;74.20
7317;DHT22;3699;51.462;6.696;2023-05-20T10:43:08;19.30;76.80
7317;DHT22;3699;51.462;6.696;2023-05-20T10:45:47;19.30;77.20
7317;DHT22;3699;51.462;6.696;2023-05-20T10:48:23;19.40;80.60
7317;DHT22;3699;51.462;6.696;2023-05-20T10:50:53;19.50;75.90
7317;DHT22;3699;51.462;6.696;2023-05-20T10:53:21;19.50;79.50
7317;DHT22;3699;51.462;6.696;2023-05-20T10:55:50;19.60;80.00
7317;DHT22;3699;51.462;6.696;2023-05-20T10:58:17;19.60;76.80
7317;DHT22;3699;51.462;6.696;2023-05-20T11:00:47;19.50;74.60
7317;DHT22;3699;51.462;6.696;2023-05-20T11:03:15;19.60;76.90
7317;DHT22;3699;51.462;6.696;2023-05-20T11:05:43;19.50;80.40
7317;DHT22;3699;51.462;6.696;2023-05-20T11:08:11;19.60;76.60
7317;DHT22;3699;51.462;6.696;2023-05-20T11:10:38;19.60;77.80
7317;DHT22;3699;51.462;6.696;2023-05-20T11:13:04;19.70;78.60
7317;DHT22;3699;51.462;6.696;2023-05-20T11:15:33;19.80;81.30
7317;DHT22;3699;51.462;6.696;2023-05-20T11:18:03;19.60;80.90
7317;DHT22;3699;51.462;6.696;2023-05-20T11:20:30;19.60;80.40
7317;DHT22;3699;51.462;6.696;2023-05-20T11:23:00;19.70;77.50
7317;DHT22;3699;51.462;6.696;2023-05-20T11:25:27;19.60;79.10
7317;DHT22;3699;51.462;6.696;2023-05-20T11:27:54;19.70;77.10
7317;DHT22;3699;51.462;6.696;2023-05-20T11:30:21;19.50;75.60
7317;DHT22;3699;51.462;6.696;2023-05-20T11:32:58;19.40;79.60
7317;DHT22;3699;51.462;6.696;2023-05-20T11:35:27;19.20;80.20
7317;DHT22;3699;51.462;6.696;2023-05-20T11:38:00;19.10;82.20
7317;DHT22;3699;51.462;6.696;2023-05-20T11:40:28;19.20;89.10
7317;DHT22;3699;51.462;6.696;2023-05-20T11:42:57;19.30;86.60
7317;DHT22;3699;51.462;6.696;2023-05-20T11:45:24;19.30;89.80
7317;DHT22;3699;51.462;6.696;2023-05-20T11:48:02;19.30;90.70
7317;DHT22;3699;51.462;6.696;2023-05-20T11:50:35;19.40;88.30
7317;DHT22;3699;51.462;6.696;2023-05-20T11:53:04;19.50;87.60
7317;DHT22;3699;51.462;6.696;2023-05-20T11:55:32;19.50;89.20
7317;DHT22;3699;51.462;6.696;2023-05-20T11:57:59;19.40;88.10
7317;DHT22;3699;51.462;6.696;2023-05-20T12:00:26;19.50;90.10
7317;DHT22;3699;51.462;6.696;2023-05-20T12:02:53;19.60;84.50
7317;DHT22;3699;51.462;6.696;2023-05-20T12:05:20;19.70;87.80
7317;DHT22;3699;51.462;6.696;2023-05-20T12:07:49;19.80;86.70
7317;DHT22;3699;51.462;6.696;2023-05-20T12:10:15;19.90;88.10
7317;DHT22;3699;51.462;6.696;2023-05-20T12:12:43;20.10;83.90
7317;DHT22;3699;51.462;6.696;2023-05-20T12:15:11;20.20;85.70
7317;DHT22;3699;51.462;6.696;2023-05-20T12:17:45;20.30;81.70
7317;DHT22;3699;51.462;6.696;2023-05-20T12:20:13;20.50;86.60
7317;DHT22;3699;51.462;6.696;2023-05-20T12:22:41;20.60;81.40
7317;DHT22;3699;51.462;6.696;2023-05-20T12:25:10;20.70;76.80
7317;DHT22;3699;51.462;6.696;2023-05-20T12:27:38;20.80;79.60
7317;DHT22;3699;51.462;6.696;2023-05-20T12:30:06;21.00;79.10
7317;DHT22;3699;51.462;6.696;2023-05-20T12:32:34;21.10;77.70
7317;DHT22;3699;51.462;6.696;2023-05-20T12:35:01;21.20;73.20
7317;DHT22;3699;51.462;6.696;2023-05-20T12:37:28;21.40;74.70
7317;DHT22;3699;51.462;6.696;2023-05-20T12:39:54;21.40;75.40
7317;DHT22;3699;51.462;6.696;2023-05-20T12:42:23;21.50;69.60
7317;DHT22;3699;51.462;6.696;2023-05-20T12:44:50;21.70;70.10
7317;DHT22;3699;51.462;6.696;2023-05-20T12:47:17;21.60;63.50
7317;DHT22;3699;51.462;6.696;2023-05-20T12:49:44;21.50;66.80
7317;DHT22;3699;51.462;6.696;2023-05-20T12:52:11;21.60;65.80
7317;DHT22;3699;51.462;6.696;2023-05-20T12:54:37;21.50;63.80
7317;DHT22;3699;51.462;6.696;2023-05-20T12:57:04;21.50;65.30
7317;DHT22;3699;51.462;6.696;2023-05-20T12:59:32;21.50;68.20
7317;DHT22;3699;51.462;6.696;2023-05-20T13:01:59;21.70;69.10
7317;DHT22;3699;51.462;6.696;2023-05-20T13:04:26;21.80;66.40
7317;DHT22;3699;51.462;6.696;2023-05-20T13:06:53;21.90;63.00
7317;DHT22;3699;51.462;6.696;2023-05-20T13:09:19;21.80;62.00
7317;DHT22;3699;51.462;6.696;2023-05-20T13:11:46;21.80;62.10
7317;DHT22;3699;51.462;6.696;2023-05-20T13:14:13;21.80;60.20
7317;DHT22;3699;51.462;6.696;2023-05-20T13:16:41;21.70;59.50
7317;DHT22;3699;51.462;6.696;2023-05-20T13:19:08;21.60;59.70
7317;DHT22;3699;51.462;6.696;2023-05-20T13:21:35;21.60;58.80
7317;DHT22;3699;51.462;6.696;2023-05-20T13:24:02;21.70;59.70
7317;DHT22;3699;51.462;6.696;2023-05-20T13:26:29;21.60;55.50
7317;DHT22;3699;51.462;6.696;2023-05-20T13:28:55;21.50;57.20
7317;DHT22;3699;51.462;6.696;2023-05-20T13:31:23;21.50;58.10
7317;DHT22;3699;51.462;6.696;2023-05-20T13:33:51;21.50;57.20
7317;DHT22;3699;51.462;6.696;2023-05-20T13:36:19;21.50;56.10
7317;DHT22;3699;51.462;6.696;2023-05-20T13:38:46;21.30;57.00
7317;DHT22;3699;51.462;6.696;2023-05-20T13:41:13;21.30;57.70
7317;DHT22;3699;51.462;6.696;2023-05-20T13:43:40;21.50;58.40
7317;DHT22;3699;51.462;6.696;2023-05-20T13:46:07;21.30;58.10
7317;DHT22;3699;51.462;6.696;2023-05-20T13:48:34;21.30;55.80
7317;DHT22;3699;51.462;6.696;2023-05-20T13:51:02;21.30;55.80
7317;DHT22;3699;51.462;6.696;2023-05-20T13:53:28;21.20;57.30
7317;DHT22;3699;51.462;6.696;2023-05-20T13:55:55;21.20;56.40
7317;DHT22;3699;51.462;6.696;2023-05-20T13:58:22;21.20;56.10
7317;DHT22;3699;51.462;6.696;2023-05-20T14:00:49;21.20;56.30
7317;DHT22;3699;51.462;6.696;2023-05-20T14:03:16;21.20;55.40
7317;DHT22;3699;51.462;6.696;2023-05-20T14:05:42;21.10;57.00
7317;DHT22;3699;51.462;6.696;2023-05-20T14:08:11;21.10;56.90
7317;DHT22;3699;51.462;6.696;2023-05-20T14:10:38;21.10;55.30
7317;DHT22;3699;51.462;6.696;2023-05-20T14:13:05;21.00;56.00
7317;DHT22;3699;51.462;6.696;2023-05-20T14:15:33;21.10;56.70
7317;DHT22;3699;51.462;6.696;2023-05-20T14:17:59;21.00;56.70
7317;DHT22;3699;51.462;6.696;2023-05-20T14:20:26;21.10;56.20
7317;DHT22;3699;51.462;6.696;2023-05-20T14:22:53;21.10;55.40
7317;DHT22;3699;51.462;6.696;2023-05-20T14:25:21;21.00;54.80
7317;DHT22;3699;51.462;6.696;2023-05-20T14:27:48;21.00;53.90
7317;DHT22;3699;51.462;6.696;2023-05-20T14:30:15;20.90;54.50
7317;DHT22;3699;51.462;6.696;2023-05-20T14:32:41;21.00;55.30
7317;DHT22;3699;51.462;6.696;2023-05-20T14:35:08;21.10;55.10
7317;DHT22;3699;51.462;6.696;2023-05-20T14:37:35;21.10;53.80
7317;DHT22;3699;51.462;6.696;2023-05-20T14:40:03;21.10;55.20
7317;DHT22;3699;51.462;6.696;2023-05-20T14:42:33;21.10;55.00
7317;DHT22;3699;51.462;6.696;2023-05-20T14:44:59;21.10;55.20
7317;DHT22;3699;51.462;6.696;2023-05-20T14:47:26;21.20;55.90
7317;DHT22;3699;51.462;6.696;2023-05-20T14:49:53;21.30;56.00
7317;DHT22;3699;51.462;6.696;2023-05-20T14:52:20;21.30;54.10
7317;DHT22;3699;51.462;6.696;2023-05-20T14:54:47;21.40;54.40
7317;DHT22;3699;51.462;6.696;2023-05-20T14:57:15;21.50;56.10
7317;DHT22;3699;51.462;6.696;2023-05-20T14:59:43;21.60;54.20
7317;DHT22;3699;51.462;6.696;2023-05-20T15:02:10;21.60;54.40
7317;DHT22;3699;51.462;6.696;2023-05-20T15:04:38;21.70;54.30
7317;DHT22;3699;51.462;6.696;2023-05-20T15:07:04;21.70;54.20
7317;DHT22;3699;51.462;6.696;2023-05-20T15:09:31;21.60;54.00
7317;DHT22;3699;51.462;6.696;2023-05-20T15:11:59;21.60;54.00
7317;DHT22;3699;51.462;6.696;2023-05-20T15:14:26;21.50;53.00
7317;DHT22;3699;51.462;6.696;2023-05-20T15:16:54;21.40;51.80
7317;DHT22;3699;51.462;6.696;2023-05-20T15:19:21;21.30;51.30
7317;DHT22;3699;51.462;6.696;2023-05-20T15:21:48;21.30;52.00
7317;DHT22;3699;51.462;6.696;2023-05-20T15:24:16;21.20;51.10
7317;DHT22;3699;51.462;6.696;2023-05-20T15:26:43;21.10;52.00
7317;DHT22;3699;51.462;6.696;2023-05-20T15:29:09;21.00;52.80
7317;DHT22;3699;51.462;6.696;2023-05-20T15:31:36;20.70;52.20
7317;DHT22;3699;51.462;6.696;2023-05-20T15:34:04;20.70;54.10
7317;DHT22;3699;51.462;6.696;2023-05-20T15:36:31;20.50;53.40
7317;DHT22;3699;51.462;6.696;2023-05-20T15:38:58;20.30;54.90
7317;DHT22;3699;51.462;6.696;2023-05-20T15:41:24;20.20;56.10
7317;DHT22;3699;51.462;6.696;2023-05-20T15:43:51;20.20;57.10
7317;DHT22;3699;51.462;6.696;2023-05-20T15:46:18;20.10;56.70
7317;DHT22;3699;51.462;6.696;2023-05-20T15:48:45;20.10;56.20
7317;DHT22;3699;51.462;6.696;2023-05-20T15:51:13;20.00;57.80
7317;DHT22;3699;51.462;6.696;2023-05-20T15:53:39;19.90;58.90
7317;DHT22;3699;51.462;6.696;2023-05-20T15:56:07;19.90;60.30
7317;DHT22;3699;51.462;6.696;2023-05-20T15:58:34;19.80;59.90
7317;DHT22;3699;51.462;6.696;2023-05-20T16:01:01;19.70;60.10
7317;DHT22;3699;51.462;6.696;2023-05-20T16:03:27;19.70;60.20
7317;DHT22;3699;51.462;6.696;2023-05-20T16:05:54;19.70;61.30
7317;DHT22;3699;51.462;6.696;2023-05-20T16:08:22;19.80;62.00
7317;DHT22;3699;51.462;6.696;2023-05-20T16:10:49;19.80;62.30
7317;DHT22;3699;51.462;6.696;2023-05-20T16:13:16;19.80;64.00
7317;DHT22;3699;51.462;6.696;2023-05-20T16:15:43;19.80;66.90
7317;DHT22;3699;51.462;6.696;2023-05-20T16:18:10;19.80;67.40
7317;DHT22;3699;51.462;6.696;2023-05-20T16:20:36;19.80;64.60